createdAt,value
2023-02-07T00:02:00.209Z,2.02
2023-02-07T00:04:30.201Z,2.10
2023-02-07T00:07:00.116Z,2.08
2023-02-07T00:09:30.109Z,2.12
2023-02-07T00:12:02.563Z,2.13
2023-02-07T00:14:32.709Z,2.03
2023-02-07T00:17:02.751Z,2.03
2023-02-07T00:19:32.620Z,2.01
2023-02-07T00:22:03.576Z,2.07
2023-02-07T00:24:33.414Z,2.08
2023-02-07T00:27:06.102Z,2.09
2023-02-07T00:29:36.112Z,2.15
2023-02-07T00:32:06.049Z,2.08
2023-02-07T00:34:36.275Z,2.00
2023-02-07T00:37:09.881Z,2.03
2023-02-07T00:39:40.598Z,2.03
2023-02-07T00:42:13.073Z,2.04
2023-02-07T00:44:43.054Z,2.02
2023-02-07T00:47:12.980Z,1.94
2023-02-07T00:49:42.901Z,1.99
2023-02-07T00:52:12.795Z,1.98
2023-02-07T00:54:42.688Z,1.90
2023-02-07T00:57:15.233Z,1.90
2023-02-07T00:59:45.209Z,1.89
2023-02-07T01:02:15.167Z,1.93
2023-02-07T01:04:46.518Z,1.92
2023-02-07T01:07:16.453Z,1.85
2023-02-07T01:09:46.361Z,1.86
2023-02-07T01:12:18.828Z,1.86
2023-02-07T01:14:48.744Z,1.83
2023-02-07T01:17:18.815Z,1.78
2023-02-07T01:19:48.717Z,1.71
2023-02-07T01:22:18.595Z,1.57
2023-02-07T01:24:48.458Z,1.72
2023-02-07T01:27:20.973Z,1.77
2023-02-07T01:29:50.952Z,1.76
2023-02-07T01:32:20.925Z,1.61
2023-02-07T01:34:50.860Z,1.66
2023-02-07T01:37:21.023Z,1.63
2023-02-07T01:39:50.906Z,1.65
2023-02-07T01:42:26.263Z,1.66
2023-02-07T01:45:07.408Z,1.60
2023-02-07T01:47:40.610Z,1.38
2023-02-07T01:50:12.615Z,1.50
2023-02-07T01:52:45.383Z,1.52
2023-02-07T01:55:21.262Z,1.43
2023-02-07T01:57:54.280Z,1.50
2023-02-07T02:00:24.879Z,1.37
2023-02-07T02:02:55.051Z,1.40
2023-02-07T02:05:27.752Z,1.33
2023-02-07T02:07:57.798Z,1.36
2023-02-07T02:10:43.739Z,1.23
2023-02-07T02:13:31.102Z,1.30
2023-02-07T02:16:12.031Z,1.24
2023-02-07T02:18:59.280Z,1.26
2023-02-07T02:22:13.264Z,1.26
2023-02-07T02:25:11.917Z,1.21
2023-02-07T02:28:10.939Z,1.16
2023-02-07T02:31:17.107Z,1.07
2023-02-07T02:33:58.498Z,1.10
2023-02-07T02:36:41.799Z,1.12
2023-02-07T02:39:21.535Z,1.01
2023-02-07T02:42:02.957Z,0.97
2023-02-07T02:44:45.090Z,0.99
2023-02-07T02:47:15.192Z,0.99
2023-02-07T02:49:48.850Z,1.04
2023-02-07T02:52:18.880Z,0.95
2023-02-07T02:54:48.833Z,0.98
2023-02-07T02:57:55.670Z,0.91
2023-02-07T03:00:40.946Z,0.75
2023-02-07T03:03:34.996Z,0.87
2023-02-07T03:06:22.983Z,0.82
2023-02-07T03:09:03.322Z,0.83
2023-02-07T03:11:44.297Z,0.83
2023-02-07T03:14:32.734Z,0.76
2023-02-07T03:17:17.282Z,0.70
2023-02-07T03:19:54.102Z,0.68
2023-02-07T03:22:31.386Z,0.66
2023-02-07T03:25:05.958Z,0.61
2023-02-07T03:27:39.815Z,0.57
2023-02-07T03:30:14.386Z,0.65
2023-02-07T03:32:50.340Z,0.53
2023-02-07T03:35:26.940Z,0.44
2023-02-07T03:38:03.389Z,0.43
2023-02-07T03:40:40.447Z,0.47
2023-02-07T03:43:16.425Z,0.44
2023-02-07T03:45:46.700Z,0.42
2023-02-07T03:48:16.851Z,0.43
2023-02-07T03:50:48.525Z,0.33
2023-02-07T03:53:21.787Z,0.43
2023-02-07T03:55:53.325Z,0.39
2023-02-07T03:58:23.289Z,0.27
2023-02-07T04:00:53.317Z,0.20
2023-02-07T04:03:23.349Z,0.24
2023-02-07T04:05:53.447Z,0.17
2023-02-07T04:08:25.925Z,0.22
2023-02-07T04:11:02.887Z,0.24
2023-02-07T04:13:33.862Z,0.23
2023-02-07T04:16:03.944Z,0.19
2023-02-07T04:18:33.941Z,0.17
2023-02-07T04:21:05.218Z,0.22
2023-02-07T04:23:38.417Z,0.15
2023-02-07T04:26:08.486Z,0.16
2023-02-07T04:28:38.478Z,0.09
2023-02-07T04:31:08.582Z,0.15
2023-02-07T04:33:38.538Z,0.07
2023-02-07T04:36:09.498Z,0.04
2023-02-07T04:38:42.053Z,0.06
2023-02-07T04:41:12.068Z,0.14
2023-02-07T04:43:42.022Z,0.26
2023-02-07T04:46:12.136Z,0.11
2023-02-07T04:48:42.179Z,0.08
2023-02-07T04:51:12.275Z,0.13
2023-02-07T04:53:45.146Z,0.03
2023-02-07T04:56:15.237Z,0.07
2023-02-07T04:58:46.505Z,0.06
2023-02-07T05:01:16.592Z,0.01
2023-02-07T05:03:46.645Z,-0.06
2023-02-07T05:06:16.633Z,-0.08
2023-02-07T05:08:49.190Z,0.01
2023-02-07T05:11:19.669Z,0.02
2023-02-07T05:13:49.580Z,-0.07
2023-02-07T05:16:19.608Z,-0.01
2023-02-07T05:18:49.597Z,-0.03
2023-02-07T05:21:19.612Z,-0.10
2023-02-07T05:23:52.216Z,-0.23
2023-02-07T05:26:22.143Z,-0.18
2023-02-07T05:28:52.148Z,-0.23
2023-02-07T05:31:42.166Z,-0.23
2023-02-07T05:34:09.624Z,-0.16
2023-02-07T05:36:40.920Z,-0.13
2023-02-07T05:39:13.460Z,-0.22
2023-02-07T05:41:43.433Z,-0.21
2023-02-07T05:44:13.450Z,-0.27
2023-02-07T05:46:43.617Z,-0.23
2023-02-07T05:49:13.739Z,-0.33
2023-02-07T05:51:43.842Z,-0.29
2023-02-07T05:54:16.558Z,-0.25
2023-02-07T05:56:46.548Z,-0.29
2023-02-07T05:59:16.574Z,-0.30
2023-02-07T06:01:46.612Z,-0.38
2023-02-07T06:04:16.602Z,-0.26
2023-02-07T06:06:46.605Z,-0.32
2023-02-07T06:09:19.261Z,-0.22
2023-02-07T06:11:49.236Z,-0.22
2023-02-07T06:14:19.317Z,-0.27
2023-02-07T06:16:49.361Z,-0.29
2023-02-07T06:19:19.395Z,-0.34
2023-02-07T06:21:49.376Z,-0.36
2023-02-07T06:24:22.498Z,-0.33
2023-02-07T06:26:52.429Z,-0.46
2023-02-07T06:29:22.489Z,-0.38
2023-02-07T06:31:52.553Z,-0.43
2023-02-07T06:34:22.562Z,-0.45
2023-02-07T06:36:52.788Z,-0.51
2023-02-07T06:39:25.558Z,-0.53
2023-02-07T06:41:55.834Z,-0.54
2023-02-07T06:44:25.791Z,-0.47
2023-02-07T06:46:55.821Z,-0.55
2023-02-07T06:49:25.859Z,-0.57
2023-02-07T06:51:55.854Z,-0.43
2023-02-07T06:54:28.622Z,-0.58
2023-02-07T06:56:58.512Z,-0.65
2023-02-07T06:59:28.467Z,-0.57
2023-02-07T07:02:00.698Z,-0.52
2023-02-07T07:04:30.747Z,-0.63
2023-02-07T07:07:00.797Z,-0.46
2023-02-07T07:09:33.492Z,-0.55
2023-02-07T07:12:04.722Z,-0.58
2023-02-07T07:14:34.674Z,-0.55
2023-02-07T07:17:04.776Z,-0.51
2023-02-07T07:19:34.930Z,-0.48
2023-02-07T07:22:05.092Z,-0.53
2023-02-07T07:24:37.869Z,-0.67
2023-02-07T07:27:08.392Z,-0.62
2023-02-07T07:29:38.545Z,-0.61
2023-02-07T07:32:17.781Z,-0.67
2023-02-07T07:34:55.133Z,-0.51
2023-02-07T07:37:25.351Z,-0.54
2023-02-07T07:39:58.028Z,-0.63
2023-02-07T07:42:28.013Z,-0.57
2023-02-07T07:45:27.142Z,-0.44
2023-02-07T07:47:57.217Z,-0.50
2023-02-07T07:50:27.181Z,-0.52
2023-02-07T07:52:57.157Z,-0.35
2023-02-07T07:55:29.804Z,-0.44
2023-02-07T07:57:59.845Z,-0.43
2023-02-07T08:00:29.901Z,-0.37
2023-02-07T08:02:59.889Z,-0.33
2023-02-07T08:05:29.958Z,-0.29
2023-02-07T08:08:00.851Z,-0.34
2023-02-07T08:10:36.113Z,-0.27
2023-02-07T08:13:06.245Z,-0.23
2023-02-07T08:15:36.283Z,-0.19
2023-02-07T08:18:07.348Z,-0.10
2023-02-07T08:20:38.307Z,-0.11
2023-02-07T08:23:08.597Z,-0.18
2023-02-07T08:25:41.203Z,-0.09
2023-02-07T08:28:11.795Z,0.06
2023-02-07T08:30:42.327Z,0.06
2023-02-07T08:33:15.434Z,-0.02
2023-02-07T08:35:46.153Z,0.19
2023-02-07T08:38:16.420Z,0.07
2023-02-07T08:40:49.270Z,0.07
2023-02-07T08:43:19.841Z,0.04
2023-02-07T08:45:51.941Z,0.16
2023-02-07T08:48:22.634Z,0.14
2023-02-07T08:50:52.670Z,0.17
2023-02-07T08:53:22.746Z,0.18
2023-02-07T08:55:55.388Z,0.14
2023-02-07T08:58:25.527Z,0.19
2023-02-07T09:00:55.521Z,0.21
2023-02-07T09:03:25.609Z,0.22
2023-02-07T09:06:01.023Z,0.35
2023-02-07T09:08:31.217Z,0.38
2023-02-07T09:11:09.051Z,0.42
2023-02-07T09:13:39.255Z,0.35
2023-02-07T09:16:09.618Z,0.43
2023-02-07T09:18:40.053Z,0.44
2023-02-07T09:21:10.661Z,0.47
2023-02-07T09:23:40.787Z,0.50
2023-02-07T09:26:28.092Z,0.59
2023-02-07T09:28:58.203Z,0.64
2023-02-07T09:31:28.442Z,0.66
2023-02-07T09:34:00.172Z,0.60
2023-02-07T09:36:32.256Z,0.75
2023-02-07T09:39:03.518Z,0.82
2023-02-07T09:41:48.028Z,0.86
2023-02-07T09:44:23.895Z,0.74
2023-02-07T09:47:02.658Z,0.82
2023-02-07T09:49:39.883Z,0.84
2023-02-07T09:52:17.326Z,0.98
2023-02-07T09:54:52.277Z,0.97
2023-02-07T09:57:37.597Z,1.01
2023-02-07T10:00:21.853Z,1.00
2023-02-07T10:02:58.566Z,1.00
2023-02-07T10:05:37.632Z,1.02
2023-02-07T10:08:07.912Z,1.10
2023-02-07T10:10:48.150Z,1.17
2023-02-07T10:13:53.124Z,1.13
2023-02-07T10:16:38.933Z,1.16
2023-02-07T10:19:27.096Z,1.26
2023-02-07T10:22:12.323Z,1.96
2023-02-07T10:25:14.010Z,1.69
2023-02-07T10:28:01.279Z,1.52
2023-02-07T10:30:38.330Z,1.60
2023-02-07T10:33:17.647Z,1.54
2023-02-07T10:35:49.670Z,1.61
2023-02-07T10:38:30.956Z,1.58
2023-02-07T10:41:09.319Z,1.54
2023-02-07T10:43:39.557Z,1.65
2023-02-07T10:46:16.769Z,1.75
2023-02-07T10:48:48.427Z,1.85
2023-02-07T10:51:29.143Z,1.80
2023-02-07T10:54:10.405Z,2.21
2023-02-07T10:56:50.430Z,2.48
2023-02-07T10:59:45.854Z,2.54
2023-02-07T11:02:49.030Z,2.78
2023-02-07T11:05:36.444Z,2.83
2023-02-07T11:08:14.282Z,2.87
2023-02-07T11:10:46.269Z,3.03
2023-02-07T11:13:18.539Z,3.13
2023-02-07T11:15:56.994Z,3.53
2023-02-07T11:18:38.007Z,3.81
2023-02-07T11:21:30.011Z,4.05
2023-02-07T11:24:04.045Z,7.47
2023-02-07T11:26:37.303Z,9.08
2023-02-07T11:29:16.341Z,11.69
2023-02-07T11:31:49.703Z,13.18
2023-02-07T11:34:34.560Z,13.63
2023-02-07T11:37:19.586Z,14.22
2023-02-07T11:39:56.896Z,15.52
2023-02-07T11:42:32.838Z,16.39
2023-02-07T11:45:07.237Z,16.96
2023-02-07T11:47:38.446Z,16.23
2023-02-07T11:50:18.848Z,18.07
2023-02-07T11:52:55.989Z,18.38
2023-02-07T11:55:30.082Z,20.48
2023-02-07T11:58:01.760Z,20.02
2023-02-07T12:00:37.524Z,19.92
2023-02-07T12:03:12.930Z,20.86
2023-02-07T12:05:51.888Z,19.67
2023-02-07T12:08:25.002Z,20.38
2023-02-07T12:11:01.641Z,20.77
2023-02-07T12:13:38.208Z,20.78
2023-02-07T12:16:20.598Z,22.80
2023-02-07T12:18:58.760Z,22.69
2023-02-07T12:21:39.752Z,22.00
2023-02-07T12:24:18.312Z,20.24
2023-02-07T12:26:57.072Z,21.37
2023-02-07T12:29:45.674Z,21.71
2023-02-07T12:32:27.410Z,20.65
2023-02-07T12:35:04.495Z,22.49
2023-02-07T12:37:47.970Z,22.55
2023-02-07T12:40:27.763Z,23.03
2023-02-07T12:43:02.818Z,22.43
2023-02-07T12:45:47.198Z,22.81
2023-02-07T12:48:33.417Z,23.31
2023-02-07T12:51:20.578Z,24.28
2023-02-07T12:54:11.109Z,23.08
2023-02-07T12:56:56.345Z,23.75
2023-02-07T12:59:41.591Z,22.88
2023-02-07T13:02:35.989Z,23.66
2023-02-07T13:05:34.136Z,24.96
2023-02-07T13:08:17.876Z,19.09
2023-02-07T13:11:05.720Z,11.36
2023-02-07T13:13:44.388Z,11.07
2023-02-07T13:16:23.314Z,14.48
2023-02-07T13:19:00.672Z,12.84
2023-02-07T13:21:43.582Z,10.46
2023-02-07T13:24:19.847Z,10.17
2023-02-07T13:26:59.080Z,9.18
2023-02-07T13:29:32.778Z,8.71
2023-02-07T13:32:12.513Z,8.51
2023-02-07T13:34:51.103Z,9.02
2023-02-07T13:37:25.509Z,13.10
2023-02-07T13:40:05.096Z,19.36
2023-02-07T13:42:48.166Z,23.24
2023-02-07T13:45:27.267Z,23.01
2023-02-07T13:48:06.559Z,24.33
2023-02-07T13:50:51.055Z,22.43
2023-02-07T13:53:36.980Z,21.33
2023-02-07T13:56:46.861Z,12.48
2023-02-07T13:59:42.962Z,17.62
2023-02-07T14:02:22.859Z,22.16
2023-02-07T14:04:58.048Z,24.73
2023-02-07T14:07:34.066Z,24.75
2023-02-07T14:10:05.417Z,24.34
2023-02-07T14:12:40.870Z,22.84
2023-02-07T14:15:58.890Z,13.77
2023-02-07T14:18:45.617Z,15.38
2023-02-07T14:21:43.612Z,13.38
2023-02-07T14:24:35.812Z,11.04
2023-02-07T14:27:08.261Z,9.95
2023-02-07T14:29:57.770Z,8.87
2023-02-07T14:32:41.885Z,8.19
2023-02-07T14:35:37.342Z,7.97
2023-02-07T14:38:27.640Z,7.83
2023-02-07T14:41:10.502Z,7.39
2023-02-07T14:44:07.573Z,7.08
2023-02-07T14:46:43.350Z,7.08
2023-02-07T14:49:25.152Z,6.85
2023-02-07T14:52:01.136Z,6.69
2023-02-07T14:54:39.311Z,6.50
2023-02-07T14:57:25.699Z,6.69
2023-02-07T15:00:05.088Z,6.59
2023-02-07T15:02:39.658Z,6.40
2023-02-07T15:05:24.107Z,6.15
2023-02-07T15:08:08.173Z,6.22
2023-02-07T15:10:42.976Z,6.04
2023-02-07T15:13:25.273Z,5.73
2023-02-07T15:15:59.818Z,5.51
2023-02-07T15:18:34.960Z,5.47
2023-02-07T15:21:09.239Z,5.47
2023-02-07T15:23:39.486Z,5.47
2023-02-07T15:26:11.722Z,5.52
2023-02-07T15:28:41.718Z,5.35
2023-02-07T15:31:16.228Z,5.30
2023-02-07T15:33:53.986Z,5.43
2023-02-07T15:36:36.507Z,5.33
2023-02-07T15:39:10.082Z,5.16
2023-02-07T15:41:40.267Z,5.13
2023-02-07T15:44:21.400Z,5.08
2023-02-07T15:46:54.209Z,5.08
2023-02-07T15:49:34.170Z,5.37
2023-02-07T15:52:16.625Z,5.16
2023-02-07T15:54:51.184Z,5.00
2023-02-07T15:57:28.536Z,4.77
2023-02-07T16:00:04.482Z,4.80
2023-02-07T16:02:51.549Z,4.74
2023-02-07T16:05:26.405Z,4.72
2023-02-07T16:08:01.702Z,4.64
2023-02-07T16:10:39.007Z,4.45
2023-02-07T16:13:21.322Z,4.42
2023-02-07T16:16:00.179Z,4.32
2023-02-07T16:18:39.381Z,4.36
2023-02-07T16:21:16.375Z,4.39
2023-02-07T16:23:51.597Z,4.24
2023-02-07T16:26:29.970Z,4.18
2023-02-07T16:29:00.392Z,4.11
2023-02-07T16:31:30.651Z,4.03
2023-02-07T16:34:00.629Z,3.94
2023-02-07T16:36:31.637Z,3.80
2023-02-07T16:39:04.261Z,3.83
2023-02-07T16:41:39.091Z,3.79
2023-02-07T16:44:14.662Z,3.89
2023-02-07T16:46:44.679Z,3.68
2023-02-07T16:49:18.163Z,3.56
2023-02-07T16:51:48.162Z,3.58
2023-02-07T16:54:20.965Z,3.44
2023-02-07T16:56:53.786Z,3.41
2023-02-07T16:59:25.884Z,3.41
2023-02-07T17:01:56.833Z,3.24
2023-02-07T17:04:26.858Z,3.29
2023-02-07T17:06:57.093Z,3.21
2023-02-07T17:09:29.666Z,3.22
2023-02-07T17:11:59.678Z,3.27
2023-02-07T17:14:29.632Z,2.90
2023-02-07T17:17:02.489Z,2.91
2023-02-07T17:19:32.595Z,3.12
2023-02-07T17:22:02.871Z,3.11
2023-02-07T17:24:35.618Z,3.07
2023-02-07T17:27:05.920Z,3.08
2023-02-07T17:29:36.024Z,3.04
2023-02-07T17:32:06.124Z,3.06
2023-02-07T17:34:36.161Z,3.04
2023-02-07T17:37:06.533Z,3.02
2023-02-07T17:39:39.097Z,2.99
2023-02-07T17:42:09.530Z,3.07
2023-02-07T17:44:40.376Z,2.97
2023-02-07T17:47:10.372Z,2.99
2023-02-07T17:49:40.468Z,2.94
2023-02-07T17:52:13.882Z,2.83
2023-02-07T17:54:46.527Z,2.76
2023-02-07T17:57:16.831Z,2.72
2023-02-07T17:59:46.730Z,2.86
2023-02-07T18:02:16.656Z,2.80
2023-02-07T18:04:46.619Z,2.83
2023-02-07T18:07:16.867Z,2.64
2023-02-07T18:09:49.445Z,2.51
2023-02-07T18:12:19.399Z,2.68
2023-02-07T18:14:51.178Z,2.58
2023-02-07T18:17:21.237Z,2.48
2023-02-07T18:19:51.313Z,2.48
2023-02-07T18:22:21.309Z,2.50
2023-02-07T18:24:53.844Z,2.37
2023-02-07T18:27:23.786Z,2.20
2023-02-07T18:29:53.755Z,2.15
2023-02-07T18:32:23.714Z,2.28
2023-02-07T18:34:53.840Z,2.30
2023-02-07T18:37:23.948Z,2.14
2023-02-07T18:39:59.591Z,2.10
2023-02-07T18:42:30.088Z,2.22
2023-02-07T18:45:00.165Z,2.21
2023-02-07T18:47:34.460Z,2.14
2023-02-07T18:50:04.530Z,2.13
2023-02-07T18:52:34.644Z,2.11
2023-02-07T18:55:08.625Z,2.05
2023-02-07T18:57:38.716Z,2.05
2023-02-07T19:00:11.845Z,1.98
2023-02-07T19:02:42.019Z,1.89
2023-02-07T19:05:12.130Z,1.91
2023-02-07T19:07:42.820Z,1.92
2023-02-07T19:10:16.606Z,1.79
2023-02-07T19:12:46.703Z,1.88
2023-02-07T19:15:16.808Z,1.85
2023-02-07T19:17:46.803Z,1.79
2023-02-07T19:20:16.821Z,1.76
2023-02-07T19:22:47.300Z,1.66
2023-02-07T19:25:20.091Z,1.57
2023-02-07T19:27:50.184Z,1.69
2023-02-07T19:30:20.409Z,1.77
2023-02-07T19:32:52.600Z,1.59
2023-02-07T19:35:22.931Z,1.69
2023-02-07T19:37:52.924Z,1.60
2023-02-07T19:40:25.613Z,1.50
2023-02-07T19:42:55.708Z,1.49
2023-02-07T19:45:26.681Z,1.46
2023-02-07T19:47:57.411Z,1.54
2023-02-07T19:50:27.511Z,1.44
2023-02-07T19:52:57.688Z,1.40
2023-02-07T19:55:30.515Z,1.35
2023-02-07T19:58:01.157Z,1.27
2023-02-07T20:00:31.297Z,1.35
2023-02-07T20:03:01.728Z,1.35
2023-02-07T20:05:32.044Z,1.36
2023-02-07T20:08:02.145Z,1.32
2023-02-07T20:10:34.923Z,1.23
2023-02-07T20:13:04.935Z,1.27
2023-02-07T20:15:34.912Z,1.15
2023-02-07T20:18:04.935Z,1.10
2023-02-07T20:20:35.109Z,1.25
2023-02-07T20:23:05.092Z,1.11
2023-02-07T20:25:41.640Z,1.02
2023-02-07T20:28:11.832Z,0.95
2023-02-07T20:30:47.079Z,0.92
2023-02-07T20:33:17.285Z,0.98
2023-02-07T20:35:49.130Z,0.88
2023-02-07T20:38:19.214Z,0.75
2023-02-07T20:40:51.808Z,0.80
2023-02-07T20:43:21.874Z,0.72
2023-02-07T20:45:52.076Z,0.74
2023-02-07T20:48:21.997Z,0.71
2023-02-07T20:50:59.909Z,1.00
2023-02-07T20:53:30.124Z,0.97
2023-02-07T20:56:10.727Z,0.83
2023-02-07T20:58:41.627Z,0.75
2023-02-07T21:01:14.504Z,0.69
2023-02-07T21:03:46.713Z,0.57
2023-02-07T21:06:18.006Z,0.64
2023-02-07T21:08:49.917Z,0.63
2023-02-07T21:11:22.627Z,0.52
2023-02-07T21:13:54.217Z,0.67
2023-02-07T21:16:25.039Z,0.56
2023-02-07T21:18:55.258Z,0.55
2023-02-07T21:21:25.316Z,0.50
2023-02-07T21:23:55.367Z,0.58
2023-02-07T21:26:29.378Z,0.45
2023-02-07T21:29:04.037Z,0.37
2023-02-07T21:31:36.218Z,0.33
2023-02-07T21:34:07.888Z,0.43
2023-02-07T21:36:40.378Z,0.38
2023-02-07T21:39:13.095Z,0.28
2023-02-07T21:41:47.911Z,0.25
2023-02-07T21:44:21.156Z,0.30
2023-02-07T21:46:52.362Z,0.31
2023-02-07T21:49:23.990Z,0.33
2023-02-07T21:51:54.817Z,0.23
2023-02-07T21:54:24.981Z,0.30
2023-02-07T21:56:57.645Z,0.32
2023-02-07T21:59:27.616Z,0.39
2023-02-07T22:01:58.247Z,0.40
2023-02-07T22:04:28.354Z,0.37
2023-02-07T22:06:58.863Z,0.17
2023-02-07T22:09:28.990Z,0.19
2023-02-07T22:12:01.680Z,0.22
2023-02-07T22:14:32.306Z,0.09
2023-02-07T22:17:03.432Z,0.04
2023-02-07T22:19:33.403Z,0.06
2023-02-07T22:22:03.528Z,0.18
2023-02-07T22:24:33.572Z,0.25
2023-02-07T22:27:06.374Z,0.10
2023-02-07T22:29:36.661Z,0.15
2023-02-07T22:32:07.048Z,0.10
2023-02-07T22:34:37.561Z,0.15
2023-02-07T22:37:07.588Z,0.18
2023-02-07T22:39:40.026Z,0.11
2023-02-07T22:42:12.619Z,-0.01
2023-02-07T22:44:42.669Z,0.06
2023-02-07T22:47:12.684Z,-0.06
2023-02-07T22:49:42.626Z,-0.06
2023-02-07T22:52:12.854Z,-0.11
2023-02-07T22:54:42.801Z,-0.03
2023-02-07T22:57:16.326Z,-0.12
2023-02-07T22:59:46.352Z,-0.14
2023-02-07T23:02:16.290Z,-0.21
2023-02-07T23:04:46.338Z,-0.19
2023-02-07T23:07:16.271Z,-0.05
2023-02-07T23:09:46.353Z,-0.13
2023-02-07T23:12:19.000Z,0.06
2023-02-07T23:14:48.989Z,-0.06
2023-02-07T23:17:18.988Z,-0.21
2023-02-07T23:19:48.909Z,-0.01
2023-02-07T23:22:19.041Z,-0.20
2023-02-07T23:24:49.256Z,0.03
2023-02-07T23:27:21.760Z,0.04
2023-02-07T23:29:51.709Z,-0.01
2023-02-07T23:32:21.821Z,-0.09
2023-02-07T23:34:51.734Z,-0.17
2023-02-07T23:37:22.874Z,-0.15
2023-02-07T23:39:52.846Z,-0.04
2023-02-07T23:42:25.475Z,-0.11
2023-02-07T23:44:55.512Z,-0.31
2023-02-07T23:47:25.469Z,-0.20
2023-02-07T23:49:55.430Z,-0.23
2023-02-07T23:52:25.403Z,-0.18
2023-02-07T23:54:55.352Z,-0.40
2023-02-07T23:57:28.118Z,-0.25
2023-02-07T23:59:58.110Z,-0.07
